Sapp, Missouri
Current Conditions -  °F | °C
As of 7:54 PM on Sunday 21 Dec 2014 (Local Time) from KCOU Reporting Station
Overcast Overcast  
Wind Chill: 33°   Ceiling: 5500
Heat Index: 41°   Visibility: 10mi
Dew Point: 35°   Wind: 14mph
Humidity: 79%   Direction: 140°SE
Pressure: 29.91"   Gusts: NA
Location:  38.895°N, 92.3958°W
Report Text: KCOU 220154Z 14012KT 10SM OVC055 05/02 A2991 RMK AO2 SLP130 T00500017
Loading
Personal Weather Stations






























Interactive Weather Map New forecast layout! Learn more

10-Day Weather Forecast

Advertisements
Track Severe Weather on mobile